createdAt,value
2018-02-22T02:29:47.189Z,79.52
2018-02-22T02:32:16.631Z,79.04
2018-02-22T02:34:46.046Z,78.44
2018-02-22T02:37:15.478Z,78.35
2018-02-22T02:39:44.896Z,78.43
2018-02-22T02:42:14.328Z,78.49
2018-02-22T02:44:43.742Z,78.50
2018-02-22T02:47:13.153Z,78.45
2018-02-22T02:49:42.582Z,78.19
2018-02-22T02:52:11.997Z,78.16
2018-02-22T02:54:41.546Z,78.19
2018-02-22T02:57:10.957Z,78.62
2018-02-22T02:59:40.385Z,78.62
2018-02-22T03:02:09.797Z,78.93
2018-02-22T03:04:39.232Z,78.77
2018-02-22T03:07:08.644Z,78.94
2018-02-22T03:09:38.054Z,79.64
2018-02-22T03:12:07.489Z,79.64
2018-02-22T03:14:36.900Z,79.51
2018-02-22T03:17:06.329Z,79.81
2018-02-22T03:19:35.740Z,79.79
2018-02-22T03:22:05.166Z,79.72
2018-02-22T03:24:34.593Z,79.65
2018-02-22T03:27:04.025Z,79.67
2018-02-22T03:29:33.441Z,80.02
2018-02-22T03:32:02.868Z,79.71
2018-02-22T03:34:32.300Z,79.96
2018-02-22T03:37:01.718Z,80.07
2018-02-22T03:39:31.148Z,80.35
2018-02-22T03:42:00.556Z,80.22
2018-02-22T03:44:29.916Z,80.60
2018-02-22T03:46:59.245Z,80.40
2018-02-22T03:49:28.596Z,80.12
2018-02-22T03:51:57.941Z,80.29
2018-02-22T03:54:27.152Z,80.04
2018-02-22T03:56:56.676Z,79.70
2018-02-22T03:59:26.008Z,79.73
2018-02-22T04:01:55.366Z,79.71
2018-02-22T04:04:24.753Z,79.35
2018-02-22T04:06:54.097Z,79.55
2018-02-22T04:09:23.469Z,80.20
2018-02-22T04:11:52.813Z,80.08
2018-02-22T04:14:22.156Z,79.89
2018-02-22T04:16:51.485Z,79.57
2018-02-22T04:19:20.648Z,79.60
2018-02-22T04:21:49.801Z,78.97
2018-02-22T04:24:18.792Z,78.89
2018-02-22T04:26:48.133Z,78.29
2018-02-22T04:29:17.485Z,79.16
2018-02-22T04:31:46.817Z,79.26
2018-02-22T04:34:16.156Z,79.48
2018-02-22T04:36:45.514Z,79.51
2018-02-22T04:39:14.852Z,79.26
2018-02-22T04:41:44.263Z,79.53
2018-02-22T04:44:13.592Z,79.24
2018-02-22T04:46:42.944Z,78.89
2018-02-22T04:49:12.280Z,78.82
2018-02-22T04:51:41.625Z,78.68
2018-02-22T04:54:10.983Z,78.92
2018-02-22T04:56:40.322Z,79.15
2018-02-22T04:59:09.678Z,78.72
2018-02-22T05:01:39.008Z,78.95
2018-02-22T05:04:08.367Z,78.98
2018-02-22T05:06:37.913Z,78.81
2018-02-22T05:09:07.244Z,78.64
2018-02-22T05:11:36.605Z,78.30
2018-02-22T05:14:05.785Z,78.82
2018-02-22T05:16:35.420Z,78.73
2018-02-22T05:19:04.760Z,78.37
2018-02-22T05:21:34.219Z,77.89
2018-02-22T05:24:03.545Z,77.55
2018-02-22T05:26:32.700Z,77.28
2018-02-22T05:29:02.053Z,77.53
2018-02-22T05:31:31.385Z,77.33
2018-02-22T05:34:00.813Z,77.26
2018-02-22T05:36:30.140Z,77.38
2018-02-22T05:38:59.497Z,76.96
2018-02-22T05:41:28.829Z,77.25
2018-02-22T05:43:58.165Z,77.25
2018-02-22T05:46:27.548Z,76.97
2018-02-22T05:48:56.889Z,76.97
2018-02-22T05:51:26.245Z,77.39
2018-02-22T05:53:55.581Z,77.12
2018-02-22T05:56:24.935Z,76.84
2018-02-22T05:58:54.272Z,76.51
2018-02-22T06:01:23.624Z,76.52
2018-02-22T06:03:53.055Z,76.78
2018-02-22T06:06:22.381Z,76.56
2018-02-22T06:08:51.758Z,76.47
2018-02-22T06:11:21.085Z,77.03
2018-02-22T06:13:50.488Z,75.59
2018-02-22T06:16:20.047Z,76.08
2018-02-22T06:18:49.489Z,75.64
2018-02-22T06:21:18.808Z,75.43
2018-02-22T06:23:48.352Z,75.49
2018-02-22T06:26:17.705Z,76.10
2018-02-22T06:28:47.041Z,75.85
2018-02-22T06:31:16.397Z,76.34
2018-02-22T06:33:45.736Z,76.33
2018-02-22T06:36:15.077Z,76.19
2018-02-22T06:38:44.468Z,75.99
2018-02-22T06:41:13.918Z,75.93
2018-02-22T06:43:43.262Z,76.19
2018-02-22T06:46:12.593Z,75.96
2018-02-22T06:48:41.933Z,75.96
2018-02-22T06:51:11.286Z,76.00
2018-02-22T06:53:40.616Z,75.75
2018-02-22T06:56:10.033Z,76.25
2018-02-22T06:58:39.361Z,75.03
2018-02-22T07:01:08.724Z,75.34
2018-02-22T07:03:38.146Z,75.71
2018-02-22T07:06:07.472Z,75.70
2018-02-22T07:08:36.820Z,75.72
2018-02-22T07:11:06.161Z,75.97
2018-02-22T07:13:35.517Z,75.72
2018-02-22T07:16:04.849Z,76.34
2018-02-22T07:18:34.200Z,76.00
2018-02-22T07:21:03.545Z,75.97
2018-02-22T07:23:32.884Z,75.87
2018-02-22T07:26:02.240Z,75.96
2018-02-22T07:28:31.581Z,76.34
2018-02-22T07:31:00.740Z,75.69
2018-02-22T07:33:30.076Z,75.68
2018-02-22T07:35:59.432Z,75.50
2018-02-22T07:38:28.576Z,75.74
2018-02-22T07:40:57.917Z,76.33
2018-02-22T07:43:27.367Z,75.53
2018-02-22T07:45:56.692Z,75.29
2018-02-22T07:48:26.045Z,75.66
2018-02-22T07:50:55.475Z,75.46
2018-02-22T07:53:24.811Z,75.48
2018-02-22T07:55:54.153Z,75.08
2018-02-22T07:58:23.485Z,75.24
2018-02-22T08:00:52.837Z,75.33
2018-02-22T08:03:22.177Z,75.76
2018-02-22T08:05:51.532Z,75.44
2018-02-22T08:08:20.868Z,75.36
2018-02-22T08:10:50.216Z,75.26
2018-02-22T08:13:19.551Z,74.75
2018-02-22T08:15:48.901Z,75.19
2018-02-22T08:18:18.284Z,74.98
2018-02-22T08:20:47.784Z,74.76
2018-02-22T08:23:17.137Z,74.90
2018-02-22T08:25:46.519Z,74.39
2018-02-22T08:28:15.906Z,75.23
2018-02-22T08:30:45.412Z,75.67
2018-02-22T08:33:14.764Z,74.94
2018-02-22T08:35:44.100Z,75.12
2018-02-22T08:38:13.444Z,74.99
2018-02-22T08:40:42.793Z,74.81
2018-02-22T08:43:12.134Z,74.50
2018-02-22T08:45:41.486Z,74.72
2018-02-22T08:48:10.820Z,74.57
2018-02-22T08:50:40.177Z,75.16
2018-02-22T08:53:09.716Z,74.10
2018-02-22T08:55:39.150Z,73.89
2018-02-22T08:58:08.488Z,73.92
2018-02-22T09:00:37.824Z,73.60
2018-02-22T09:03:07.241Z,74.86
2018-02-22T09:05:36.739Z,73.92
2018-02-22T09:08:06.097Z,74.44
2018-02-22T09:10:35.265Z,73.86
2018-02-22T09:13:04.589Z,74.06
2018-02-22T09:15:33.967Z,74.69
2018-02-22T09:18:03.101Z,75.71
2018-02-22T09:20:32.456Z,74.43
2018-02-22T09:23:01.789Z,74.99
2018-02-22T09:25:31.161Z,74.90
2018-02-22T09:28:00.577Z,74.47
2018-02-22T09:30:29.914Z,74.32
2018-02-22T09:32:59.284Z,74.62
2018-02-22T09:35:28.609Z,74.33
2018-02-22T09:37:57.988Z,73.89
2018-02-22T09:40:27.318Z,74.06
2018-02-22T09:42:56.672Z,74.23
2018-02-22T09:45:25.824Z,75.51
2018-02-22T09:47:55.156Z,75.96
2018-02-22T09:50:24.566Z,76.04
2018-02-22T09:52:53.903Z,76.10
2018-02-22T09:55:23.260Z,74.67
2018-02-22T09:57:52.592Z,74.73
2018-02-22T10:00:21.952Z,74.65
2018-02-22T10:02:51.288Z,74.55
2018-02-22T10:05:20.633Z,74.68
2018-02-22T10:07:50.018Z,76.03
2018-02-22T10:10:19.424Z,75.08
2018-02-22T10:12:48.830Z,75.26
2018-02-22T10:15:18.161Z,73.73
2018-02-22T10:17:47.333Z,73.08
2018-02-22T10:20:16.665Z,72.99
2018-02-22T10:22:46.029Z,72.96
2018-02-22T10:25:15.365Z,71.93
2018-02-22T10:27:44.701Z,73.06
2018-02-22T10:30:14.053Z,72.53
2018-02-22T10:32:43.400Z,72.54
2018-02-22T10:35:12.793Z,71.46
2018-02-22T10:37:42.138Z,70.82
2018-02-22T10:40:11.489Z,71.58
2018-02-22T10:42:40.645Z,71.49
2018-02-22T10:45:09.978Z,72.13
2018-02-22T10:47:39.330Z,71.29
2018-02-22T10:50:08.729Z,69.87
2018-02-22T10:52:38.227Z,71.32
2018-02-22T10:55:07.573Z,71.63
2018-02-22T10:57:36.925Z,71.48
2018-02-22T11:00:05.573Z,70.46
2018-02-22T11:02:40.296Z,70.41
2018-02-22T11:05:09.633Z,70.41
2018-02-22T11:07:38.969Z,70.74
2018-02-22T11:10:08.320Z,71.01
2018-02-22T11:12:37.653Z,70.64
2018-02-22T11:15:07.005Z,69.99
2018-02-22T11:17:36.348Z,69.95
2018-02-22T11:20:05.705Z,70.95
2018-02-22T11:22:35.033Z,70.95
2018-02-22T11:25:04.374Z,70.31
2018-02-22T11:27:33.726Z,70.21
2018-02-22T11:30:03.095Z,70.25
2018-02-22T11:32:32.440Z,68.42
2018-02-22T11:35:01.777Z,69.76
2018-02-22T11:37:31.133Z,68.84
2018-02-22T11:40:00.504Z,69.90
2018-02-22T11:42:29.828Z,70.45
2018-02-22T11:44:59.184Z,70.58
2018-02-22T11:47:28.521Z,69.51
2018-02-22T11:49:57.907Z,71.54
2018-02-22T11:52:27.228Z,73.34
2018-02-22T11:54:56.585Z,74.20
2018-02-22T11:57:25.925Z,75.65
2018-02-22T11:59:55.265Z,75.06
2018-02-22T12:02:24.622Z,74.42
2018-02-22T12:04:54.021Z,72.76
2018-02-22T12:07:23.360Z,73.29
2018-02-22T12:09:52.697Z,73.83
2018-02-22T12:12:22.131Z,75.68
2018-02-22T12:14:51.474Z,73.74
2018-02-22T12:17:20.813Z,74.58
2018-02-22T12:19:50.153Z,75.52
2018-02-22T12:22:19.509Z,75.58
2018-02-22T12:24:48.849Z,74.46
2018-02-22T12:27:18.184Z,74.02
2018-02-22T12:29:47.542Z,76.19
2018-02-22T12:32:16.872Z,76.80
2018-02-22T12:34:46.213Z,76.81
2018-02-22T12:37:15.561Z,78.34
2018-02-22T12:39:44.904Z,76.95
2018-02-22T12:42:14.233Z,77.04
2018-02-22T12:44:43.593Z,76.48
2018-02-22T12:47:12.924Z,77.51
2018-02-22T12:49:42.267Z,76.96
2018-02-22T12:52:11.622Z,76.08
2018-02-22T12:54:40.953Z,75.00
2018-02-22T12:57:10.297Z,75.59
2018-02-22T13:02:14.290Z,75.49
2018-02-22T13:04:43.645Z,75.27
2018-02-22T13:07:12.976Z,76.94
2018-02-22T13:09:42.313Z,76.21
2018-02-22T13:12:11.669Z,75.74
2018-02-22T13:14:41.000Z,75.22
2018-02-22T13:17:10.336Z,75.16
2018-02-22T13:19:39.502Z,76.57
2018-02-22T13:22:08.905Z,76.47
2018-02-22T13:24:38.233Z,75.02
2018-02-22T13:27:07.248Z,76.89
2018-02-22T13:29:36.603Z,76.28
2018-02-22T13:32:05.924Z,74.76
2018-02-22T13:34:36.068Z,74.34
2018-02-22T13:37:16.556Z,75.07
2018-02-22T13:39:45.909Z,74.63
2018-02-22T13:42:15.244Z,76.14
2018-02-22T13:44:55.612Z,76.33
2018-02-22T13:47:25.166Z,76.56
2018-02-22T13:50:05.633Z,75.84
2018-02-22T13:52:35.026Z,76.01
2018-02-22T13:55:04.349Z,76.46
2018-02-22T13:57:33.709Z,75.54
2018-02-22T14:00:03.216Z,74.47
2018-02-22T14:02:32.556Z,74.74
2018-02-22T14:05:01.939Z,75.90
2018-02-22T14:07:31.261Z,76.53
2018-02-22T14:10:00.606Z,76.87
2018-02-22T14:12:29.956Z,76.20
2018-02-22T14:14:59.300Z,76.44
2018-02-22T14:17:28.637Z,76.50
2018-02-22T14:19:57.993Z,75.70
2018-02-22T14:22:27.325Z,75.36
2018-02-22T14:24:56.756Z,74.88
2018-02-22T14:27:26.100Z,74.98
2018-02-22T14:29:55.438Z,75.04
2018-02-22T14:32:24.773Z,74.48
2018-02-22T14:34:54.136Z,74.72
2018-02-22T14:37:23.476Z,76.12
2018-02-22T14:39:52.812Z,75.93
2018-02-22T14:42:22.175Z,75.97
2018-02-22T14:44:51.532Z,76.80
2018-02-22T14:47:20.869Z,77.02
2018-02-22T14:49:50.232Z,76.67
2018-02-22T14:52:19.572Z,77.56
2018-02-22T14:54:48.909Z,77.19
2018-02-22T14:57:18.260Z,77.58
2018-02-22T14:59:47.821Z,76.26
2018-02-22T15:02:22.728Z,77.40
2018-02-22T15:04:52.060Z,76.70
2018-02-22T15:07:21.420Z,76.07
2018-02-22T15:09:50.785Z,77.57
2018-02-22T15:12:20.116Z,75.92
2018-02-22T15:14:49.453Z,76.08
2018-02-22T15:17:18.832Z,75.68
2018-02-22T15:19:48.156Z,75.62
2018-02-22T15:22:17.497Z,74.97
2018-02-22T15:24:46.865Z,75.44
2018-02-22T15:27:16.246Z,75.49
2018-02-22T15:29:45.576Z,76.88
2018-02-22T15:32:14.948Z,76.25
2018-02-22T15:34:44.338Z,76.57
2018-02-22T15:37:13.716Z,77.33
2018-02-22T15:39:43.092Z,77.29
2018-02-22T15:42:12.629Z,78.37
2018-02-22T15:44:42.016Z,77.63
2018-02-22T15:47:11.365Z,77.67
2018-02-22T15:49:40.709Z,77.22
2018-02-22T15:52:10.225Z,76.78
2018-02-22T15:54:39.575Z,76.32
2018-02-22T15:57:09.112Z,75.91
2018-02-22T15:59:38.452Z,76.04
2018-02-22T16:02:07.843Z,76.48
2018-02-22T16:04:37.173Z,75.83
2018-02-22T16:07:06.512Z,76.23
2018-02-22T16:09:35.869Z,76.95
2018-02-22T16:12:05.222Z,77.09
2018-02-22T16:14:34.376Z,77.07
2018-02-22T16:17:03.729Z,77.58
2018-02-22T16:19:33.092Z,77.67
2018-02-22T16:22:02.440Z,77.53
2018-02-22T16:24:31.806Z,78.31
2018-02-22T16:27:01.141Z,79.25
2018-02-22T16:29:30.284Z,79.83
2018-02-22T16:31:59.645Z,80.09
2018-02-22T16:34:28.982Z,80.98
2018-02-22T16:36:58.328Z,81.19
2018-02-22T16:39:27.718Z,81.32
2018-02-22T16:41:56.697Z,81.75
2018-02-22T16:44:26.185Z,81.97
2018-02-22T16:46:55.537Z,83.16
2018-02-22T16:49:24.890Z,83.63
2018-02-22T16:51:54.229Z,82.65
2018-02-22T16:54:23.585Z,83.03
2018-02-22T16:56:52.924Z,83.42
2018-02-22T16:59:22.257Z,83.62
2018-02-22T17:01:51.618Z,83.44
2018-02-22T17:04:21.008Z,83.57
2018-02-22T17:06:50.477Z,83.81
2018-02-22T17:09:19.854Z,83.50
2018-02-22T17:11:49.417Z,83.26
2018-02-22T17:14:18.565Z,83.21
2018-02-22T17:16:47.928Z,83.33
2018-02-22T17:19:17.269Z,83.19
2018-02-22T17:21:46.608Z,83.53
2018-02-22T17:24:15.965Z,83.60
2018-02-22T17:26:50.889Z,83.88
2018-02-22T17:29:25.949Z,84.11
2018-02-22T17:32:00.720Z,84.21
2018-02-22T17:34:29.884Z,83.99
2018-02-22T17:37:06.637Z,84.03
2018-02-22T17:39:41.517Z,84.21
2018-02-22T17:42:10.688Z,83.94
2018-02-22T17:44:39.841Z,83.88
2018-02-22T17:47:09.008Z,83.55
2018-02-22T17:49:38.349Z,84.10
2018-02-22T17:52:07.681Z,83.57
2018-02-22T17:54:37.033Z,83.61
2018-02-22T17:57:06.189Z,84.03
2018-02-22T17:59:35.332Z,83.55
2018-02-22T18:02:04.169Z,83.11
2018-02-22T18:04:33.504Z,82.85
2018-02-22T18:07:02.653Z,82.90
2018-02-22T18:09:31.821Z,82.33
2018-02-22T18:12:01.166Z,82.46
2018-02-22T18:14:30.317Z,82.23
2018-02-22T18:16:59.673Z,82.47
2018-02-22T18:19:29.009Z,81.87
2018-02-22T18:21:58.345Z,81.98
2018-02-22T18:24:27.705Z,82.21
2018-02-22T18:26:56.680Z,82.23
2018-02-22T18:29:26.037Z,81.96
2018-02-22T18:31:55.372Z,81.69
2018-02-22T18:34:24.780Z,81.93
2018-02-22T18:36:54.280Z,81.64
2018-02-22T18:39:28.608Z,81.32
2018-02-22T18:45:13.556Z,81.75
2018-02-22T18:47:42.913Z,81.05
2018-02-22T18:50:12.269Z,81.29
2018-02-22T18:52:41.620Z,80.70
2018-02-22T18:55:10.960Z,80.73
2018-02-22T18:57:40.323Z,80.54
2018-02-22T19:00:09.660Z,80.85
2018-02-22T19:02:39.015Z,80.37
2018-02-22T19:05:08.353Z,80.25
2018-02-22T19:07:37.705Z,79.70
2018-02-22T19:10:07.076Z,79.06
2018-02-22T19:12:36.427Z,79.26
2018-02-22T19:15:05.424Z,79.43
2018-02-22T19:17:34.761Z,79.16
2018-02-22T19:20:03.740Z,79.44
2018-02-22T19:22:33.114Z,78.77
2018-02-22T19:25:02.449Z,79.19
2018-02-22T19:27:31.789Z,79.04
2018-02-22T19:30:01.144Z,79.22
2018-02-22T19:32:30.486Z,79.15
2018-02-22T19:34:59.835Z,78.66
2018-02-22T19:37:29.184Z,79.63
2018-02-22T19:39:58.357Z,79.64
2018-02-22T19:42:27.713Z,79.40
2018-02-22T19:44:57.130Z,79.23
2018-02-22T19:47:26.489Z,79.15
2018-02-22T19:49:55.909Z,79.12
2018-02-22T19:52:25.270Z,79.22
2018-02-22T19:54:54.644Z,79.29
2018-02-22T19:57:24.016Z,78.82
2018-02-22T19:59:53.382Z,78.95
2018-02-22T20:02:22.740Z,78.87
2018-02-22T20:04:52.072Z,78.68
2018-02-22T20:07:21.433Z,78.55
2018-02-22T20:09:50.768Z,78.96
2018-02-22T20:12:20.108Z,78.76
2018-02-22T20:14:49.468Z,78.88
2018-02-22T20:17:19.037Z,78.57
2018-02-22T20:19:48.706Z,78.38
2018-02-22T20:22:18.053Z,78.73
2018-02-22T20:24:47.392Z,78.88
2018-02-22T20:27:16.744Z,76.95
2018-02-22T20:29:46.089Z,77.80
2018-02-22T20:32:15.516Z,77.76
2018-02-22T20:34:44.841Z,78.65
2018-02-22T20:37:14.181Z,78.05
2018-02-22T20:39:43.548Z,77.52
2018-02-22T20:42:12.872Z,77.66
2018-02-22T20:44:42.224Z,77.77
2018-02-22T20:47:11.701Z,77.17
2018-02-22T20:49:40.876Z,76.58
2018-02-22T20:52:10.453Z,76.82
2018-02-22T20:54:39.626Z,76.70
2018-02-22T20:57:08.768Z,76.69
2018-02-22T20:59:37.937Z,76.88
2018-02-22T21:02:07.193Z,76.44
2018-02-22T21:04:36.368Z,77.10
2018-02-22T21:07:05.743Z,76.39
2018-02-22T21:09:35.093Z,76.67
2018-02-22T21:12:04.432Z,76.66
2018-02-22T21:14:33.784Z,76.99
2018-02-22T21:17:03.125Z,76.78
2018-02-22T21:19:32.554Z,77.37
2018-02-22T21:22:01.889Z,77.05
2018-02-22T21:24:31.221Z,77.01
2018-02-22T21:27:00.577Z,76.70
2018-02-22T21:29:29.967Z,76.74
2018-02-22T21:31:59.398Z,77.27
2018-02-22T21:34:28.757Z,76.99
2018-02-22T21:36:58.092Z,77.64
2018-02-22T21:39:27.470Z,77.24
2018-02-22T21:41:56.821Z,77.54
2018-02-22T21:44:26.161Z,77.39
2018-02-22T21:46:55.498Z,77.75
2018-02-22T21:49:24.948Z,77.46
2018-02-22T21:51:54.302Z,77.30
2018-02-22T21:54:23.640Z,77.39
2018-02-22T21:56:52.989Z,77.52
2018-02-22T21:59:22.319Z,77.42
2018-02-22T22:01:51.681Z,77.41
2018-02-22T22:04:21.064Z,77.59
2018-02-22T22:06:50.710Z,77.41
2018-02-22T22:09:20.072Z,77.19
2018-02-22T22:11:49.444Z,77.64
2018-02-22T22:14:18.879Z,77.77
2018-02-22T22:16:48.322Z,77.58
2018-02-22T22:19:17.645Z,77.66
2018-02-22T22:21:46.985Z,77.50
2018-02-22T22:24:16.344Z,77.32
2018-02-22T22:26:45.693Z,77.67
2018-02-22T22:29:15.021Z,77.89
2018-02-22T22:31:44.425Z,78.31
2018-02-22T22:34:13.765Z,77.97
2018-02-22T22:36:43.145Z,78.41
2018-02-22T22:39:12.444Z,78.19
2018-02-22T22:41:41.785Z,78.48
2018-02-22T22:44:11.385Z,77.96
2018-02-22T22:46:40.892Z,78.54
2018-02-22T22:49:10.232Z,78.70
2018-02-22T22:51:40.482Z,78.33
2018-02-22T22:54:09.839Z,78.44
2018-02-22T22:56:39.200Z,78.96
2018-02-22T22:59:08.551Z,78.76
2018-02-22T23:01:37.904Z,78.72
2018-02-22T23:04:07.274Z,79.16
2018-02-22T23:06:36.612Z,79.00
2018-02-22T23:09:05.264Z,78.85
2018-02-22T23:11:34.624Z,79.17
2018-02-22T23:14:03.961Z,79.41
2018-02-22T23:16:33.296Z,79.22
2018-02-22T23:19:02.655Z,79.17
2018-02-22T23:21:31.994Z,78.71
2018-02-22T23:24:01.325Z,79.15
2018-02-22T23:26:30.672Z,79.01
2018-02-22T23:29:00.017Z,79.05
2018-02-22T23:31:29.184Z,79.31
2018-02-22T23:33:58.441Z,79.43
2018-02-22T23:36:27.777Z,78.90
2018-02-22T23:38:56.941Z,79.11
2018-02-22T23:41:31.625Z,79.04
2018-02-22T23:44:00.813Z,78.83
2018-02-22T23:46:29.960Z,78.72
2018-02-22T23:48:59.339Z,79.06
2018-02-22T23:51:28.684Z,78.99
2018-02-22T23:53:58.013Z,78.83
2018-02-22T23:56:26.546Z,78.45
2018-02-22T23:58:56.028Z,78.53
